Time;durP1;ratioP1;P1;durP2;ratioP2;P2;SDS_P1;SDS_P2;PMS_P1;PMS_P2;Temp;Humidity;BMP_temperature;BMP_pressure;BME280_temperature;BME280_humidity;BME280_pressure;Samples;Min_cycle;Max_cycle;Signal;HPM_P1;HPM_P2
2023/10/08 00:01:35;;;;;;;11.13;8.75;;;13.80;99.90;;;;;;5091916;28;20051;-70
2023/10/08 00:04:04;;;;;;;11.07;8.80;;;13.90;99.90;;;;;;5091702;28;20521;-70
2023/10/08 00:06:30;;;;;;;10.85;8.27;;;14.00;99.90;;;;;;5091766;28;20028;-70
2023/10/08 00:09:00;;;;;;;12.68;8.68;;;14.10;99.90;;;;;;5092349;28;20501;-70
2023/10/08 00:11:29;;;;;;;9.95;8.50;;;14.10;99.90;;;;;;5091858;28;20028;-70
2023/10/08 00:13:56;;;;;;;10.77;8.80;;;14.00;99.90;;;;;;5092125;28;20027;-69
2023/10/08 00:16:22;;;;;;;11.50;8.48;;;14.10;99.90;;;;;;5091738;28;20069;-69
2023/10/08 00:18:50;;;;;;;10.50;8.40;;;14.10;99.90;;;;;;5091455;28;20020;-69
2023/10/08 00:21:26;;;;;;;11.82;8.40;;;14.10;99.90;;;;;;5092045;28;20036;-68
2023/10/08 00:23:52;;;;;;;11.10;8.57;;;13.90;99.90;;;;;;5091807;28;20457;-69
2023/10/08 00:26:29;;;;;;;10.80;8.48;;;13.70;99.90;;;;;;5091529;28;20111;-69
2023/10/08 00:28:59;;;;;;;10.40;8.52;;;13.60;99.90;;;;;;5091422;28;20127;-70
2023/10/08 00:31:30;;;;;;;10.55;8.98;;;13.50;99.90;;;;;;5091144;28;20589;-67
2023/10/08 00:33:56;;;;;;;11.95;8.80;;;13.30;99.90;;;;;;5091595;28;20397;-70
2023/10/08 00:36:23;;;;;;;13.57;8.68;;;13.20;99.90;;;;;;5091472;28;20455;-70
2023/10/08 00:38:58;;;;;;;10.68;8.70;;;13.10;99.90;;;;;;5091389;28;20024;-70
2023/10/08 00:41:28;;;;;;;13.77;8.45;;;13.00;99.90;;;;;;5091664;28;20028;-70
2023/10/08 00:43:56;;;;;;;11.52;8.75;;;12.90;99.90;;;;;;5091404;28;20176;-69
2023/10/08 00:46:31;;;;;;;11.35;8.55;;;12.80;99.90;;;;;;5091302;28;20036;-69
2023/10/08 00:48:58;;;;;;;13.63;8.95;;;12.70;99.90;;;;;;5090042;28;20031;-70
2023/10/08 00:51:26;;;;;;;12.90;8.85;;;12.70;99.90;;;;;;5091301;28;20394;-69
2023/10/08 00:54:05;;;;;;;10.95;8.95;;;12.70;99.90;;;;;;5091401;28;20031;-68
2023/10/08 00:56:50;;;;;;;10.68;8.43;;;12.60;99.90;;;;;;5091658;28;20024;-69
2023/10/08 00:59:16;;;;;;;11.93;8.65;;;12.50;99.90;;;;;;5091211;28;20037;-70
2023/10/08 01:01:51;;;;;;;12.98;9.10;;;12.50;99.90;;;;;;5090800;28;20161;-70
2023/10/08 01:04:33;;;;;;;11.48;8.35;;;12.50;99.90;;;;;;5091135;28;20020;-69
2023/10/08 01:07:01;;;;;;;11.65;8.82;;;12.50;99.90;;;;;;5091193;28;20032;-69
2023/10/08 01:09:35;;;;;;;13.52;8.30;;;12.40;99.90;;;;;;5091081;28;20055;-69
2023/10/08 01:12:15;;;;;;;10.40;8.18;;;12.50;99.90;;;;;;5091172;28;20101;-69
2023/10/08 01:14:46;;;;;;;10.10;8.23;;;12.60;99.90;;;;;;5091155;28;20020;-69
2023/10/08 01:17:16;;;;;;;11.63;8.70;;;12.50;99.90;;;;;;5092012;28;20099;-69
2023/10/08 01:19:45;;;;;;;9.98;8.55;;;12.40;99.90;;;;;;5095175;28;20032;-69
2023/10/08 01:22:22;;;;;;;9.65;8.38;;;12.40;99.90;;;;;;5095342;28;20032;-69
2023/10/08 01:24:51;;;;;;;11.20;8.90;;;12.30;99.90;;;;;;5095039;28;20051;-68
2023/10/08 01:27:22;;;;;;;8.70;7.80;;;12.30;99.90;;;;;;5094999;28;20117;-69
2023/10/08 01:29:51;;;;;;;9.50;7.93;;;12.40;99.90;;;;;;5094667;28;20410;-69
2023/10/08 01:32:19;;;;;;;9.60;7.75;;;12.70;99.90;;;;;;5095218;28;20032;-69
2023/10/08 01:34:45;;;;;;;11.43;7.80;;;12.80;99.90;;;;;;5094945;28;20027;-69
2023/10/08 01:37:18;;;;;;;8.73;7.82;;;12.90;99.90;;;;;;5094669;28;20474;-69
2023/10/08 01:39:49;;;;;;;13.10;8.52;;;13.00;99.90;;;;;;5094785;28;20059;-69
2023/10/08 01:42:23;;;;;;;9.40;8.02;;;13.10;99.90;;;;;;5094520;28;20127;-69
2023/10/08 01:44:50;;;;;;;10.15;7.85;;;13.10;99.90;;;;;;5094327;28;20445;-68
2023/10/08 01:47:16;;;;;;;9.35;7.63;;;13.10;99.90;;;;;;5095097;28;20110;-69
2023/10/08 01:49:44;;;;;;;10.52;8.70;;;13.00;99.90;;;;;;5094224;28;20035;-69
2023/10/08 01:52:22;;;;;;;8.63;7.72;;;13.10;99.90;;;;;;5094786;28;20028;-69
2023/10/08 01:54:49;;;;;;;9.95;8.35;;;13.00;99.90;;;;;;5094961;28;20026;-70
2023/10/08 01:57:16;;;;;;;10.65;9.55;;;13.00;99.90;;;;;;5094486;28;20031;-70
2023/10/08 01:59:44;;;;;;;10.23;9.15;;;12.90;99.90;;;;;;5094091;28;20051;-69
2023/10/08 02:02:09;;;;;;;11.90;9.55;;;12.80;99.90;;;;;;5094345;28;20044;-69
2023/10/08 02:04:35;;;;;;;11.77;9.75;;;12.60;99.90;;;;;;5094355;28;20030;-69
2023/10/08 02:07:07;;;;;;;11.52;10.15;;;12.40;99.90;;;;;;5094246;28;20137;-68
2023/10/08 02:09:37;;;;;;;10.63;9.52;;;12.30;99.90;;;;;;5094612;28;20394;-69
2023/10/08 02:12:03;;;;;;;11.98;9.50;;;12.20;99.90;;;;;;5094122;28;20108;-69
2023/10/08 02:14:31;;;;;;;11.07;9.90;;;12.10;99.90;;;;;;5093803;28;20422;-68
2023/10/08 02:17:01;;;;;;;13.18;9.75;;;11.90;99.90;;;;;;5094146;28;20032;-69
2023/10/08 02:19:28;;;;;;;12.52;9.57;;;11.90;99.90;;;;;;5094042;28;20505;-69
2023/10/08 02:21:54;;;;;;;12.65;9.20;;;11.80;99.90;;;;;;5094011;28;20032;-69
2023/10/08 02:24:23;;;;;;;11.10;9.30;;;11.80;99.90;;;;;;5093854;28;20035;-69
2023/10/08 02:26:56;;;;;;;12.50;8.90;;;11.80;99.90;;;;;;5093785;28;20039;-68
2023/10/08 02:29:29;;;;;;;11.57;9.20;;;11.70;99.90;;;;;;5093759;28;20044;-69
2023/10/08 02:31:55;;;;;;;;;;;11.70;99.90;;;;;;5094470;28;20016;-69
2023/10/08 02:34:21;;;;;;;11.38;8.75;;;11.60;99.90;;;;;;5093801;28;19947;-68
2023/10/08 02:36:47;;;;;;;12.27;8.70;;;11.60;99.90;;;;;;5094208;28;20064;-69
2023/10/08 02:39:13;;;;;;;11.32;9.50;;;11.70;99.90;;;;;;5093763;28;20035;-69
2023/10/08 02:41:43;;;;;;;10.18;8.70;;;11.60;99.90;;;;;;5093599;28;20036;-68
2023/10/08 02:44:12;;;;;;;10.20;8.57;;;11.50;99.90;;;;;;5093188;28;20024;-69
2023/10/08 02:46:47;;;;;;;10.43;8.80;;;11.40;99.90;;;;;;5093675;28;20028;-69
2023/10/08 02:49:16;;;;;;;11.35;9.30;;;11.40;99.90;;;;;;5093396;28;20074;-68
2023/10/08 02:51:44;;;;;;;11.23;9.30;;;11.30;99.90;;;;;;5093407;28;20044;-68
2023/10/08 02:54:44;;;;;;;10.43;9.30;;;11.30;99.90;;;;;;5093413;28;20099;-68
2023/10/08 02:57:04;;;;;;;12.68;9.15;;;11.30;99.90;;;;;;5091714;28;20134;-69
2023/10/08 02:59:44;;;;;;;10.20;8.95;;;11.30;99.90;;;;;;5093639;28;20028;-69
2023/10/08 03:02:18;;;;;;;10.27;8.98;;;11.20;99.90;;;;;;5093184;28;20086;-69
2023/10/08 03:04:48;;;;;;;10.95;8.80;;;11.20;99.90;;;;;;5093247;28;20017;-69
2023/10/08 03:07:31;;;;;;;10.40;9.10;;;11.20;99.90;;;;;;5093329;28;20115;-68
2023/10/08 03:10:06;;;;;;;10.55;9.10;;;11.30;99.90;;;;;;5093098;28;20047;-69
2023/10/08 03:12:33;;;;;;;10.55;7.95;;;11.60;99.90;;;;;;5092796;28;20085;-67
2023/10/08 03:17:51;;;;;;;12.30;8.95;;;11.80;99.90;;;;;;5093101;28;20402;-68
2023/10/08 03:20:38;;;;;;;11.35;8.30;;;11.90;99.90;;;;;;5093273;28;20520;-69
2023/10/08 03:23:23;;;;;;;16.08;8.57;;;12.00;99.90;;;;;;5092937;28;20036;-67
2023/10/08 03:25:58;;;;;;;10.13;8.63;;;12.00;99.90;;;;;;5092553;28;20036;-68
2023/10/08 03:28:24;;;;;;;10.82;8.73;;;12.00;99.90;;;;;;5092574;28;20054;-68
2023/10/08 03:30:56;;;;;;;10.60;8.70;;;12.00;99.90;;;;;;5092762;28;20094;-69
2023/10/08 03:33:26;;;;;;;10.10;8.70;;;12.00;99.90;;;;;;5092674;28;20039;-68
2023/10/08 03:35:52;;;;;;;10.80;8.60;;;12.00;99.90;;;;;;5092652;28;20039;-69
2023/10/08 03:38:28;;;;;;;9.38;8.38;;;11.80;99.90;;;;;;5092660;28;20032;-68
2023/10/08 03:41:09;;;;;;;10.10;8.27;;;11.70;99.90;;;;;;5091375;28;20081;-68
2023/10/08 03:43:42;;;;;;;10.07;8.40;;;11.50;99.90;;;;;;5092809;28;20030;-67
2023/10/08 03:46:14;;;;;;;10.00;8.43;;;11.30;99.90;;;;;;5092415;28;20509;-68
2023/10/08 03:48:44;;;;;;;9.97;8.97;;;11.20;99.90;;;;;;5092428;28;20512;-68
2023/10/08 03:51:11;;;;;;;10.70;9.05;;;11.00;99.90;;;;;;5092707;28;20036;-67
2023/10/08 03:56:41;;;;;;;10.40;8.90;;;10.90;99.90;;;;;;5069316;28;20042;-67
2023/10/08 04:01:54;;;;;;;;;;;10.70;99.90;;;;;;5070644;28;20097;-67
2023/10/08 04:04:24;;;;;;;10.38;8.88;;;10.60;99.90;;;;;;5069442;28;19908;-67
2023/10/08 04:06:51;;;;;;;13.35;8.93;;;10.60;99.90;;;;;;5069271;28;20037;-68
2023/10/08 04:14:18;;;;;;;11.82;8.15;;;10.30;99.90;;;;;;5069125;28;20032;-67
2023/10/08 04:16:44;;;;;;;10.30;8.55;;;10.40;99.90;;;;;;5069389;28;20024;-67
2023/10/08 04:19:10;;;;;;;10.20;8.65;;;10.50;99.90;;;;;;5069546;28;20043;-67
2023/10/08 04:21:37;;;;;;;11.13;8.77;;;10.40;99.90;;;;;;5069113;28;20505;-67
2023/10/08 04:24:03;;;;;;;12.02;8.45;;;10.20;99.90;;;;;;5068725;28;20060;-68
2023/10/08 04:26:31;;;;;;;11.35;8.00;;;10.20;99.90;;;;;;5069728;28;20048;-67
2023/10/08 04:29:02;;;;;;;13.50;8.57;;;10.30;99.90;;;;;;5068536;28;20103;-67
2023/10/08 04:31:46;;;;;;;11.95;8.10;;;10.20;99.90;;;;;;5069095;28;20028;-66
2023/10/08 04:36:54;;;;;;;11.60;8.57;;;10.20;99.90;;;;;;5071288;28;20028;-67
2023/10/08 04:39:26;;;;;;;11.25;8.05;;;10.10;99.90;;;;;;5070997;28;20041;-67
2023/10/08 04:41:58;;;;;;;13.18;8.50;;;10.10;99.90;;;;;;5071230;28;20044;-67
2023/10/08 04:44:25;;;;;;;12.05;9.00;;;10.10;99.90;;;;;;5071527;28;20058;-67
2023/10/08 04:46:52;;;;;;;11.50;8.27;;;10.00;99.90;;;;;;5071214;28;20040;-67
2023/10/08 04:49:28;;;;;;;12.32;8.85;;;10.10;99.90;;;;;;5071260;28;20044;-67
2023/10/08 04:52:15;;;;;;;12.40;8.25;;;10.20;99.90;;;;;;5070188;28;20555;-67
2023/10/08 04:54:51;;;;;;;9.40;8.38;;;10.40;99.90;;;;;;5070776;28;20510;-67
2023/10/08 04:57:18;;;;;;;11.27;8.27;;;10.50;99.90;;;;;;5071245;28;20028;-68
2023/10/08 04:59:46;;;;;;;9.45;8.27;;;10.60;99.90;;;;;;5071036;28;20028;-67
2023/10/08 05:04:56;;;;;;;11.43;8.13;;;10.80;99.90;;;;;;5070951;28;20070;-67
2023/10/08 05:12:45;;;;;;;9.90;7.90;;;10.70;99.90;;;;;;5071126;28;20095;-67
2023/10/08 05:23:20;;;;;;;11.60;8.43;;;10.50;99.90;;;;;;5028265;28;20040;-66
2023/10/08 05:26:41;;;;;;;12.23;8.27;;;10.40;99.90;;;;;;5028529;28;20038;-67
2023/10/08 05:29:04;;;;;;;11.98;8.13;;;10.20;99.90;;;;;;5024492;28;20045;-67
2023/10/08 05:34:16;;;;;;;13.13;8.02;;;9.90;99.90;;;;;;5028471;28;20025;-66
2023/10/08 05:37:28;;;;;;;10.15;8.68;;;9.80;99.90;;;;;;5028108;28;20041;-67
2023/10/08 05:39:55;;;;;;;12.27;8.55;;;9.80;99.90;;;;;;5028387;28;20121;-66
2023/10/08 05:42:31;;;;;;;11.63;8.25;;;9.80;99.90;;;;;;5028247;28;20586;-66
2023/10/08 05:52:53;;;;;;;15.73;8.75;;;9.50;99.90;;;;;;5027881;28;20029;-66
2023/10/08 05:55:33;;;;;;;14.30;9.15;;;9.50;99.90;;;;;;5028812;28;20411;-66
2023/10/08 06:03:36;;;;;;;10.40;8.32;;;9.50;99.90;;;;;;5071540;28;20098;-66
2023/10/08 06:08:49;;;;;;;10.93;8.48;;;9.40;99.90;;;;;;5074082;28;20032;-66
2023/10/08 06:11:36;;;;;;;11.07;7.85;;;9.40;99.90;;;;;;5074010;28;20047;-66
2023/10/08 06:14:11;;;;;;;11.85;8.00;;;9.30;99.90;;;;;;5074111;28;20020;-66
2023/10/08 06:16:43;;;;;;;12.57;8.13;;;9.20;99.90;;;;;;5074005;28;20028;-66
2023/10/08 06:19:13;;;;;;;13.00;8.38;;;9.20;99.90;;;;;;5073791;28;20043;-66
2023/10/08 06:21:41;;;;;;;11.88;8.38;;;9.10;99.90;;;;;;5073382;28;20406;-66
2023/10/08 06:24:08;;;;;;;12.38;8.43;;;9.20;99.90;;;;;;5080479;28;20063;-66
2023/10/08 06:26:48;;;;;;;12.00;8.13;;;9.10;99.90;;;;;;5094288;28;20084;-66
2023/10/08 06:29:31;;;;;;;13.18;8.70;;;9.10;99.90;;;;;;5093891;28;20048;-67
2023/10/08 06:32:01;;;;;;;11.07;8.40;;;9.10;99.90;;;;;;5093833;28;20024;-67
2023/10/08 06:34:28;;;;;;;10.38;8.52;;;9.30;99.90;;;;;;5093428;28;20032;-67
2023/10/08 06:36:55;;;;;;;11.88;8.52;;;9.50;99.90;;;;;;5094266;28;20076;-67
2023/10/08 06:39:25;;;;;;;13.30;8.38;;;9.70;99.90;;;;;;5093850;28;20398;-67
2023/10/08 06:41:56;;;;;;;12.07;8.00;;;9.90;99.90;;;;;;5093857;28;20032;-67
2023/10/08 06:44:22;;;;;;;13.57;9.10;;;10.00;99.90;;;;;;5093649;28;20020;-67
2023/10/08 06:46:48;;;;;;;14.98;8.45;;;10.20;99.90;;;;;;5093587;28;20149;-67
2023/10/08 06:49:15;;;;;;;15.32;8.85;;;10.30;99.90;;;;;;5093166;28;20087;-67
2023/10/08 06:51:43;;;;;;;16.42;9.98;;;10.40;99.90;;;;;;5093506;28;20503;-67
2023/10/08 06:54:13;;;;;;;15.13;10.02;;;10.50;99.90;;;;;;5093733;28;20039;-67
2023/10/08 06:56:45;;;;;;;15.15;9.73;;;10.60;99.90;;;;;;5093522;28;20027;-67
2023/10/08 06:59:14;;;;;;;12.98;8.70;;;10.60;99.90;;;;;;5093387;28;20031;-67
2023/10/08 07:01:45;;;;;;;15.20;8.70;;;10.60;99.90;;;;;;5093205;28;20509;-67
2023/10/08 07:04:12;;;;;;;11.27;9.30;;;10.50;99.90;;;;;;5092799;28;20510;-67
2023/10/08 07:06:46;;;;;;;14.90;8.60;;;10.30;99.90;;;;;;5093722;28;20028;-67
2023/10/08 07:11:54;;;;;;;10.52;8.90;;;10.30;99.90;;;;;;5093380;28;20034;-66
2023/10/08 07:14:27;;;;;;;10.57;9.38;;;10.30;99.90;;;;;;5092342;28;20034;-68
2023/10/08 07:17:00;;;;;;;12.80;9.50;;;10.40;99.90;;;;;;5093020;28;20048;-67
2023/10/08 07:19:36;;;;;;;14.32;9.57;;;10.40;99.90;;;;;;5092726;28;20020;-67
2023/10/08 07:22:05;;;;;;;13.20;9.50;;;10.40;99.90;;;;;;5093051;28;20119;-68
2023/10/08 07:24:34;;;;;;;12.18;9.10;;;10.40;99.90;;;;;;5092944;28;20048;-67
2023/10/08 07:27:08;;;;;;;16.15;10.07;;;10.50;99.90;;;;;;5093354;28;20516;-67
2023/10/08 07:29:35;;;;;;;15.20;10.10;;;10.60;99.90;;;;;;5092529;28;20512;-67
2023/10/08 07:32:09;;;;;;;13.13;9.98;;;10.60;99.90;;;;;;5092531;28;20023;-66
2023/10/08 07:34:36;;;;;;;11.68;9.45;;;10.70;99.90;;;;;;5093011;28;20040;-67
2023/10/08 07:37:02;;;;;;;14.20;10.00;;;10.80;99.90;;;;;;5092700;28;20027;-67
2023/10/08 07:39:35;;;;;;;10.13;9.00;;;10.90;99.90;;;;;;5092665;28;20036;-67
2023/10/08 07:42:05;;;;;;;10.70;9.00;;;11.00;99.90;;;;;;5091505;28;20028;-67
2023/10/08 07:44:31;;;;;;;10.98;8.73;;;11.10;99.90;;;;;;5092783;28;20494;-67
2023/10/08 07:46:57;;;;;;;10.32;8.57;;;11.20;99.90;;;;;;5092084;28;20032;-67
2023/10/08 07:49:25;;;;;;;9.50;8.05;;;11.30;99.90;;;;;;5092432;28;20020;-67
2023/10/08 07:51:51;;;;;;;9.85;8.40;;;11.40;99.90;;;;;;5092354;28;20521;-66
2023/10/08 07:54:22;;;;;;;9.52;8.13;;;11.60;99.90;;;;;;5092607;28;20024;-66
2023/10/08 07:56:51;;;;;;;9.98;8.38;;;11.60;99.90;;;;;;5092349;28;20024;-67
2023/10/08 07:59:17;;;;;;;9.63;8.30;;;11.70;99.90;;;;;;5092228;28;20036;-66
2023/10/08 08:01:43;;;;;;;14.75;8.80;;;11.80;99.90;;;;;;5092198;28;20519;-68
2023/10/08 08:04:11;;;;;;;11.45;8.57;;;11.90;99.90;;;;;;5092269;28;20027;-68
2023/10/08 08:06:39;;;;;;;13.32;8.82;;;12.00;99.90;;;;;;5092083;28;20046;-67
2023/10/08 08:09:17;;;;;;;9.50;8.20;;;12.00;99.90;;;;;;5092026;28;20102;-68
2023/10/08 08:11:45;;;;;;;11.00;8.25;;;12.10;99.90;;;;;;5091703;28;20032;-67
2023/10/08 08:14:16;;;;;;;10.82;9.05;;;12.30;99.90;;;;;;5091986;28;20024;-68
2023/10/08 08:16:48;;;;;;;10.63;9.40;;;12.40;99.90;;;;;;5091984;28;20063;-67
2023/10/08 08:19:24;;;;;;;21.65;16.63;;;12.70;99.90;;;;;;5091884;28;20542;-68
2023/10/08 08:21:49;;;;;;;25.52;20.58;;;13.00;99.90;;;;;;5091898;28;20063;-68
2023/10/08 08:24:28;;;;;;;15.25;12.88;;;13.20;99.90;;;;;;5083749;28;20071;-68
2023/10/08 08:27:07;;;;;;;14.80;12.02;;;13.40;99.90;;;;;;5071130;28;20110;-68
2023/10/08 08:29:44;;;;;;;15.48;12.45;;;13.60;99.90;;;;;;5070990;28;20546;-67
2023/10/08 08:32:12;;;;;;;12.32;9.85;;;13.80;99.90;;;;;;5071201;28;20036;-68
2023/10/08 08:34:43;;;;;;;11.95;9.98;;;13.90;99.90;;;;;;5071437;28;20036;-69
2023/10/08 08:37:12;;;;;;;10.65;8.88;;;14.10;99.90;;;;;;5070976;28;20051;-68
2023/10/08 08:39:39;;;;;;;9.65;8.65;;;14.20;99.90;;;;;;5071233;28;20032;-68
2023/10/08 08:42:05;;;;;;;9.85;8.82;;;14.40;99.90;;;;;;5071112;28;20035;-67
2023/10/08 08:44:50;;;;;;;12.60;8.18;;;14.50;99.90;;;;;;5070895;28;20028;-68
2023/10/08 08:47:18;;;;;;;11.52;8.25;;;14.70;99.90;;;;;;5071211;28;20059;-66
2023/10/08 08:49:47;;;;;;;10.85;8.00;;;14.70;99.90;;;;;;5070358;28;20032;-68
2023/10/08 08:52:14;;;;;;;10.40;7.72;;;14.60;99.90;;;;;;5070518;28;20582;-69
2023/10/08 08:54:41;;;;;;;12.43;7.88;;;14.70;99.90;;;;;;5070343;28;20403;-68
2023/10/08 08:57:13;;;;;;;8.20;7.15;;;14.70;99.90;;;;;;5070861;28;20406;-68
2023/10/08 08:59:55;;;;;;;12.68;7.30;;;14.90;99.90;;;;;;5070701;28;20036;-68
2023/10/08 09:02:22;;;;;;;10.88;6.72;;;15.10;99.90;;;;;;5071405;28;20045;-68
2023/10/08 09:04:53;;;;;;;12.05;6.50;;;15.20;99.90;;;;;;5071120;28;20030;-67
2023/10/08 09:07:23;;;;;;;13.13;6.68;;;15.30;99.90;;;;;;5070997;28;20107;-67
2023/10/08 09:09:49;;;;;;;10.30;6.55;;;15.40;99.90;;;;;;5070943;28;20024;-67
2023/10/08 09:12:16;;;;;;;9.63;6.05;;;15.50;99.90;;;;;;5070595;28;20031;-66
2023/10/08 09:14:46;;;;;;;9.55;5.97;;;15.60;99.90;;;;;;5070725;28;20186;-67
2023/10/08 09:17:15;;;;;;;12.10;6.03;;;15.70;99.90;;;;;;5071362;28;20029;-65
2023/10/08 09:19:40;;;;;;;16.75;6.47;;;16.10;99.90;;;;;;5070965;28;20024;-66
2023/10/08 09:22:09;;;;;;;9.57;5.53;;;16.30;99.90;;;;;;5070910;28;20035;-65
2023/10/08 09:24:36;;;;;;;9.82;5.80;;;16.20;99.90;;;;;;5081537;28;20028;-66
2023/10/08 09:27:15;;;;;;;8.98;5.90;;;16.30;99.90;;;;;;5090340;28;20173;-66
2023/10/08 09:29:42;;;;;;;11.00;6.03;;;16.40;99.90;;;;;;5090490;28;20048;-66
2023/10/08 09:32:23;;;;;;;8.95;5.68;;;16.40;99.90;;;;;;5090726;28;20028;-66
2023/10/08 09:34:50;;;;;;;9.10;5.93;;;16.50;99.90;;;;;;5091405;28;20022;-66
2023/10/08 09:37:17;;;;;;;8.40;5.10;;;16.60;99.90;;;;;;5091255;28;20115;-66
2023/10/08 09:39:45;;;;;;;7.68;5.50;;;16.90;99.90;;;;;;5094306;28;20024;-65
2023/10/08 09:42:13;;;;;;;9.32;5.70;;;17.10;99.90;;;;;;5094919;28;20072;-66
2023/10/08 09:44:39;;;;;;;9.77;5.03;;;17.30;99.90;;;;;;5094937;28;20012;-66
2023/10/08 09:47:05;;;;;;;10.65;5.60;;;17.40;99.90;;;;;;5095041;28;20085;-65
2023/10/08 09:49:35;;;;;;;8.18;5.93;;;17.50;99.90;;;;;;5094748;28;20149;-66
2023/10/08 09:52:06;;;;;;;8.77;5.03;;;17.60;99.90;;;;;;5094783;28;20024;-66
2023/10/08 09:54:47;;;;;;;7.85;5.28;;;17.80;99.90;;;;;;5094997;28;20082;-66
2023/10/08 09:57:13;;;;;;;8.93;5.75;;;18.10;99.90;;;;;;5094400;28;20417;-66
2023/10/08 09:59:41;;;;;;;9.35;5.53;;;18.30;99.90;;;;;;5094521;28;20032;-66
2023/10/08 10:02:09;;;;;;;8.73;5.20;;;18.60;99.90;;;;;;5094452;28;20060;-67
2023/10/08 10:04:35;;;;;;;8.38;5.38;;;18.80;99.90;;;;;;5094734;28;20111;-66
2023/10/08 10:07:16;;;;;;;8.30;5.78;;;19.00;99.90;;;;;;5094902;28;20025;-66
2023/10/08 10:09:46;;;;;;;8.45;5.03;;;19.30;99.90;;;;;;5094265;28;20121;-67
2023/10/08 10:12:17;;;;;;;9.57;5.70;;;19.40;99.90;;;;;;5094127;28;20561;-67
2023/10/08 10:14:46;;;;;;;7.57;5.10;;;19.60;99.90;;;;;;5094409;28;20509;-68
2023/10/08 10:17:25;;;;;;;8.02;4.90;;;19.80;99.90;;;;;;5094359;28;20031;-68
2023/10/08 10:19:55;;;;;;;6.50;4.90;;;20.00;99.90;;;;;;5094183;28;20052;-67
2023/10/08 10:22:29;;;;;;;7.97;5.25;;;20.10;99.90;;;;;;5094398;28;20398;-68
2023/10/08 10:24:56;;;;;;;10.00;5.13;;;20.10;99.90;;;;;;5094195;28;20055;-68
2023/10/08 10:27:22;;;;;;;11.85;5.20;;;20.30;99.90;;;;;;5093587;28;20036;-67
2023/10/08 10:29:48;;;;;;;6.30;4.85;;;20.30;99.90;;;;;;5092638;28;20177;-68
2023/10/08 10:32:15;;;;;;;6.40;4.90;;;20.20;99.90;;;;;;5093961;28;20032;-67
2023/10/08 10:34:43;;;;;;;8.18;5.03;;;20.30;99.90;;;;;;5094074;28;20107;-68
2023/10/08 10:37:18;;;;;;;6.80;4.78;;;20.50;99.90;;;;;;5093867;28;20032;-68
2023/10/08 10:40:00;;;;;;;6.97;4.78;;;20.60;99.90;;;;;;5093559;28;20063;-68
2023/10/08 10:42:29;;;;;;;6.72;4.68;;;20.80;99.90;;;;;;5093335;28;20104;-68
2023/10/08 10:44:56;;;;;;;7.45;4.72;;;20.90;99.90;;;;;;5093727;28;20367;-68
2023/10/08 10:52:44;;;;;;;11.05;8.63;;;21.40;99.90;;;;;;5093867;28;20381;-68
2023/10/08 10:57:43;;;;;;;11.60;8.70;;;21.70;99.90;;;;;;5093631;28;20052;-69
2023/10/08 11:03:02;;;;;;;9.57;7.15;;;21.80;99.90;;;;;;5093310;28;20529;-68
2023/10/08 11:05:36;;;;;;;8.27;6.13;;;22.20;99.90;;;;;;5093323;28;20073;-67
2023/10/08 11:08:06;;;;;;;8.55;5.32;;;22.20;99.90;;;;;;5093092;28;20032;-68
2023/10/08 11:10:34;;;;;;;11.38;6.53;;;22.30;99.90;;;;;;5093284;28;20040;-68
2023/10/08 11:13:01;;;;;;;9.40;6.40;;;22.40;99.90;;;;;;5093087;28;20406;-69
2023/10/08 11:15:40;;;;;;;11.45;6.45;;;22.40;99.90;;;;;;5093132;28;20109;-67
2023/10/08 11:18:10;;;;;;;11.57;7.00;;;22.40;99.90;;;;;;5093100;28;20425;-69
2023/10/08 11:20:44;;;;;;;11.52;6.10;;;22.30;99.90;;;;;;5093030;28;20024;-68
2023/10/08 11:23:28;;;;;;;8.48;5.78;;;22.20;99.90;;;;;;5092713;28;20036;-68
2023/10/08 11:26:05;;;;;;;8.85;6.00;;;22.20;99.90;;;;;;5092606;28;20548;-69
2023/10/08 11:28:41;;;;;;;8.75;5.50;;;22.40;99.90;;;;;;5092686;28;20466;-69
2023/10/08 11:31:10;;;;;;;8.52;5.80;;;22.60;99.90;;;;;;5092680;28;20802;-69
2023/10/08 11:33:41;;;;;;;9.93;5.93;;;22.80;99.90;;;;;;5092754;28;20529;-68
2023/10/08 11:36:18;;;;;;;8.98;6.18;;;23.00;99.90;;;;;;5092933;28;20020;-69
2023/10/08 11:38:50;;;;;;;10.57;5.78;;;23.20;99.90;;;;;;5092584;28;20406;-69
2023/10/08 11:41:22;;;;;;;7.15;5.35;;;23.30;99.90;;;;;;5092558;28;20024;-69
2023/10/08 11:43:58;;;;;;;6.40;5.17;;;23.40;99.90;;;;;;5092530;28;20032;-69
2023/10/08 11:46:38;;;;;;;7.72;5.47;;;23.70;99.90;;;;;;5092870;28;20089;-69
2023/10/08 11:49:17;;;;;;;10.90;4.97;;;23.80;99.90;;;;;;5092557;28;20032;-69
2023/10/08 11:51:46;;;;;;;7.57;4.45;;;23.70;99.90;;;;;;5092479;28;20064;-69
2023/10/08 11:54:12;;;;;;;6.55;4.53;;;24.00;99.90;;;;;;5091162;28;20028;-69
2023/10/08 11:56:39;;;;;;;6.53;4.80;;;24.20;99.90;;;;;;5092421;28;20032;-69
2023/10/08 11:59:11;;;;;;;5.80;4.47;;;24.30;99.90;;;;;;5092310;28;20024;-69
2023/10/08 12:01:37;;;;;;;6.05;4.63;;;24.40;99.90;;;;;;5090312;28;20371;-69
2023/10/08 12:04:04;;;;;;;6.15;4.63;;;24.40;99.90;;;;;;5092297;28;20020;-70
2023/10/08 12:06:30;;;;;;;8.43;4.88;;;24.60;99.90;;;;;;5092050;28;20020;-70
2023/10/08 12:08:58;;;;;;;8.35;4.93;;;24.60;99.90;;;;;;5091761;28;20513;-70
2023/10/08 12:11:34;;;;;;;6.97;5.15;;;24.60;99.90;;;;;;5092479;28;20023;-69
2023/10/08 12:13:59;;;;;;;7.32;5.35;;;24.50;99.90;;;;;;5092204;28;20016;-70
2023/10/08 12:16:35;;;;;;;7.50;5.18;;;24.50;99.90;;;;;;5092005;28;20039;-70
2023/10/08 12:19:02;;;;;;;5.85;4.90;;;24.50;99.90;;;;;;5091862;28;20027;-70
2023/10/08 12:21:31;;;;;;;7.32;5.50;;;24.50;99.90;;;;;;5091799;28;20024;-70
2023/10/08 12:23:58;;;;;;;9.23;5.57;;;24.60;99.90;;;;;;5091664;28;20138;-70
2023/10/08 12:26:25;;;;;;;8.82;5.60;;;24.70;99.90;;;;;;5091854;28;20020;-70
2023/10/08 12:28:51;;;;;;;8.10;5.20;;;24.80;99.90;;;;;;5090678;28;20046;-70
2023/10/08 12:31:22;;;;;;;8.85;5.95;;;24.80;99.90;;;;;;5091822;28;20557;-70
2023/10/08 12:33:49;;;;;;;8.98;5.70;;;24.80;99.90;;;;;;5091702;28;20028;-69
2023/10/08 12:36:16;;;;;;;10.07;5.43;;;24.80;99.90;;;;;;5091690;28;20016;-69
2023/10/08 12:38:43;;;;;;;7.88;5.93;;;24.70;99.90;;;;;;5091929;28;20032;-69
2023/10/08 12:41:13;;;;;;;11.55;6.97;;;24.80;99.90;;;;;;5091580;28;20020;-69
2023/10/08 12:43:52;;;;;;;8.05;6.18;;;24.90;99.90;;;;;;5091594;28;20032;-69
2023/10/08 12:46:18;;;;;;;8.68;6.28;;;24.90;99.90;;;;;;5091558;28;20402;-70
2023/10/08 12:48:52;;;;;;;9.02;6.10;;;24.80;99.90;;;;;;5091493;28;20032;-70
2023/10/08 12:51:18;;;;;;;;;;;24.90;99.90;;;;;;5091690;28;20089;-70
2023/10/08 12:54:33;;;;;;;6.13;4.57;;;25.10;99.90;;;;;;5092100;28;19911;-70
2023/10/08 12:56:38;;;;;;;7.78;5.30;;;25.20;99.90;;;;;;5087695;28;20125;-70
2023/10/08 12:59:07;;;;;;;8.27;5.70;;;25.30;99.90;;;;;;5091361;28;20050;-70
2023/10/08 13:01:40;;;;;;;7.78;4.97;;;25.40;99.90;;;;;;5091463;28;20088;-70
2023/10/08 13:04:15;;;;;;;6.13;4.70;;;25.50;99.90;;;;;;5091607;28;20066;-70
2023/10/08 13:06:45;;;;;;;6.50;4.80;;;25.60;99.90;;;;;;5090801;28;20016;-70
2023/10/08 13:09:13;;;;;;;6.93;4.85;;;25.50;99.90;;;;;;5091678;28;20088;-70
2023/10/08 13:11:40;;;;;;;7.35;4.68;;;25.60;99.90;;;;;;5091364;28;20097;-69
2023/10/08 13:14:05;;;;;;;5.70;4.65;;;25.90;99.90;;;;;;5094071;28;20032;-70
2023/10/08 13:16:31;;;;;;;6.90;4.75;;;26.20;99.90;;;;;;5095894;28;20490;-69
2023/10/08 13:18:59;;;;;;;7.95;4.90;;;26.50;99.90;;;;;;5095459;28;20042;-70
2023/10/08 13:21:28;;;;;;;8.43;4.65;;;26.60;99.90;;;;;;5094934;28;20027;-70
2023/10/08 13:23:59;;;;;;;6.00;4.57;;;26.70;99.90;;;;;;5095566;28;20089;-70
2023/10/08 13:26:31;;;;;;;5.85;4.20;;;26.70;99.90;;;;;;5095049;28;20506;-70
2023/10/08 13:29:00;;;;;;;6.57;4.70;;;26.90;99.90;;;;;;5094954;28;20051;-70
2023/10/08 13:31:27;;;;;;;7.28;4.38;;;27.10;99.90;;;;;;5095048;28;20028;-70
2023/10/08 13:34:02;;;;;;;7.22;4.63;;;27.20;99.90;;;;;;5093620;28;20059;-70
2023/10/08 13:36:28;;;;;;;5.70;4.53;;;27.20;99.90;;;;;;5094670;28;20032;-70
2023/10/08 13:38:55;;;;;;;6.53;4.38;;;27.20;99.90;;;;;;5095028;28;20035;-70
2023/10/08 13:41:20;;;;;;;8.38;4.78;;;27.30;99.90;;;;;;5095355;28;20086;-70
2023/10/08 13:44:01;;;;;;;4.72;4.05;;;27.40;99.90;;;;;;5094497;28;20044;-70
2023/10/08 13:46:27;;;;;;;7.68;4.70;;;27.50;99.90;;;;;;5095362;28;20024;-70
2023/10/08 13:48:53;;;;;;;8.43;5.30;;;27.50;99.90;;;;;;5094909;28;20502;-70
2023/10/08 13:51:28;;;;;;;9.10;5.25;;;27.40;99.90;;;;;;5094708;28;20047;-70
2023/10/08 13:54:06;;;;;;;7.15;4.95;;;27.30;99.90;;;;;;5095138;28;20035;-70
2023/10/08 13:56:32;;;;;;;7.32;5.20;;;27.30;99.90;;;;;;5094906;28;20478;-69
2023/10/08 13:59:11;;;;;;;5.47;4.57;;;27.40;99.90;;;;;;5095012;28;20052;-70
2023/10/08 14:01:46;;;;;;;9.18;4.78;;;27.50;99.90;;;;;;5094464;28;20078;-70
2023/10/08 14:04:17;;;;;;;10.10;4.50;;;27.60;99.90;;;;;;5094161;28;20116;-70
2023/10/08 14:06:47;;;;;;;10.23;4.43;;;27.70;99.90;;;;;;5094586;28;20032;-71